Time;durP1;ratioP1;P1;durP2;ratioP2;P2;SDS_P1;SDS_P2;PMS_P1;PMS_P2;Temp;Humidity;BMP_temperature;BMP_pressure;BME280_temperature;BME280_humidity;BME280_pressure;Samples;Min_cycle;Max_cycle;Signal;HPM_P1;HPM_P2
2022/09/03 00:02:18;;;;;;;11.27;6.23;;;;;;;;;;747515;184;923165;-53
2022/09/03 00:04:45;;;;;;;10.27;6.93;;;;;;;;;;752475;184;920131;-54
2022/09/03 00:07:11;;;;;;;10.20;7.10;;;;;;;;;;755055;184;919408;-55
2022/09/03 00:09:38;;;;;;;8.73;6.57;;;;;;;;;;748835;185;919079;-54
2022/09/03 00:12:08;;;;;;;9.23;7.27;;;;;;;;;;749409;185;919615;-55
2022/09/03 00:14:34;;;;;;;11.32;7.32;;;;;;;;;;759585;184;919058;-54
2022/09/03 00:17:00;;;;;;;10.40;6.63;;;;;;;;;;753223;184;919916;-54
2022/09/03 00:19:25;;;;;;;12.03;7.07;;;;;;;;;;752156;185;919017;-53
2022/09/03 00:21:51;;;;;;;10.30;7.13;;;;;;;;;;758215;184;920589;-54
2022/09/03 00:24:17;;;;;;;11.83;7.10;;;;;;;;;;751058;184;923539;-54
2022/09/03 00:26:44;;;;;;;10.87;6.70;;;;;;;;;;754858;184;919016;-54
2022/09/03 00:29:10;;;;;;;12.70;7.57;;;;;;;;;;757710;182;917030;-55
2022/09/03 00:31:38;;;;;;;11.17;7.57;;;;;;;;;;755089;184;920970;-54
2022/09/03 00:34:08;;;;;;;10.30;7.30;;;;;;;;;;750438;184;888456;-54
2022/09/03 00:36:33;;;;;;;13.02;7.18;;;;;;;;;;754860;183;918922;-54
2022/09/03 00:38:59;;;;;;;14.27;7.50;;;;;;;;;;758270;182;919150;-55
2022/09/03 00:41:28;;;;;;;13.30;7.60;;;;;;;;;;753873;184;918742;-53
2022/09/03 00:44:12;;;;;;;11.47;8.47;;;;;;;;;;752807;184;919459;-53
2022/09/03 00:46:40;;;;;;;14.07;8.98;;;;;;;;;;754188;184;913032;-53
2022/09/03 00:49:21;;;;;;;10.47;7.30;;;;;;;;;;750882;185;915657;-54
2022/09/03 00:51:48;;;;;;;19.63;7.90;;;;;;;;;;755860;184;916245;-54
2022/09/03 00:54:15;;;;;;;11.60;7.87;;;;;;;;;;757522;184;920918;-54
2022/09/03 00:56:41;;;;;;;12.40;8.13;;;;;;;;;;757271;184;919399;-54
2022/09/03 00:59:13;;;;;;;10.50;7.93;;;;;;;;;;751258;184;919379;-53
2022/09/03 01:01:40;;;;;;;11.87;7.80;;;;;;;;;;749236;186;919496;-55
2022/09/03 01:04:08;;;;;;;9.60;8.07;;;;;;;;;;754086;185;818414;-54
2022/09/03 01:06:34;;;;;;;15.50;8.27;;;;;;;;;;752806;185;921310;-54
2022/09/03 01:09:10;;;;;;;10.80;7.37;;;;;;;;;;753693;184;921173;-54
2022/09/03 01:11:54;;;;;;;15.70;9.63;;;;;;;;;;746534;184;920035;-54
2022/09/03 01:14:19;;;;;;;17.10;9.83;;;;;;;;;;749921;183;919514;-54
2022/09/03 01:16:47;;;;;;;8.90;7.60;;;;;;;;;;762970;184;820236;-56
2022/09/03 01:19:17;;;;;;;10.03;7.53;;;;;;;;;;751775;185;920138;-54
2022/09/03 01:21:46;;;;;;;12.82;8.18;;;;;;;;;;749755;184;919461;-54
2022/09/03 01:24:17;;;;;;;12.63;9.10;;;;;;;;;;751237;180;918968;-54
2022/09/03 01:26:44;;;;;;;17.73;9.80;;;;;;;;;;752930;183;920065;-53
2022/09/03 01:29:14;;;;;;;11.40;8.17;;;;;;;;;;755339;184;889891;-55
2022/09/03 01:31:56;;;;;;;11.30;9.40;;;;;;;;;;747279;185;816802;-54
2022/09/03 01:34:40;;;;;;;11.95;8.73;;;;;;;;;;754048;185;918936;-53
2022/09/03 01:37:09;;;;;;;12.00;7.93;;;;;;;;;;752967;183;891289;-53
2022/09/03 01:39:40;;;;;;;13.37;8.80;;;;;;;;;;752182;181;901724;-53
2022/09/03 01:44:39;;;;;;;10.17;7.90;;;;;;;;;;756403;184;819299;-53
2022/09/03 01:47:08;;;;;;;11.93;8.98;;;;;;;;;;752757;185;919600;-54
2022/09/03 01:49:31;;;;;;;11.77;8.37;;;;;;;;;;748330;184;918624;-55
2022/09/03 01:51:58;;;;;;;11.60;8.13;;;;;;;;;;756692;181;914433;-54
2022/09/03 01:54:25;;;;;;;12.03;8.83;;;;;;;;;;759653;184;918817;-54
2022/09/03 01:57:09;;;;;;;14.50;8.70;;;;;;;;;;757804;184;923563;-54
2022/09/03 01:59:37;;;;;;;14.93;9.70;;;;;;;;;;744371;183;837936;-54
2022/09/03 02:02:06;;;;;;;16.83;9.10;;;;;;;;;;754936;184;919236;-53
2022/09/03 02:04:32;;;;;;;15.10;9.77;;;;;;;;;;756335;185;817706;-54
2022/09/03 02:06:59;;;;;;;15.83;9.23;;;;;;;;;;756838;184;912563;-54
2022/09/03 02:09:23;;;;;;;17.20;10.87;;;;;;;;;;747919;184;859763;-54
2022/09/03 02:11:49;;;;;;;13.27;8.83;;;;;;;;;;760589;184;919868;-54
2022/09/03 02:14:15;;;;;;;16.33;10.00;;;;;;;;;;752320;184;919530;-53
2022/09/03 02:16:43;;;;;;;12.20;9.23;;;;;;;;;;755728;184;919319;-54
2022/09/03 02:19:09;;;;;;;14.73;10.18;;;;;;;;;;751729;184;919766;-54
2022/09/03 02:21:33;;;;;;;14.90;10.00;;;;;;;;;;764643;181;876886;-54
2022/09/03 02:23:59;;;;;;;14.87;10.70;;;;;;;;;;749362;185;919633;-54
2022/09/03 02:26:25;;;;;;;13.80;9.10;;;;;;;;;;746167;185;918250;-54
2022/09/03 02:28:51;;;;;;;13.73;9.40;;;;;;;;;;761452;184;920806;-53
2022/09/03 02:31:17;;;;;;;16.23;10.70;;;;;;;;;;752478;184;919451;-54
2022/09/03 02:33:43;;;;;;;13.63;9.10;;;;;;;;;;746623;184;919800;-54
2022/09/03 02:36:08;;;;;;;11.07;8.83;;;;;;;;;;761470;184;914976;-54
2022/09/03 02:38:34;;;;;;;17.50;9.47;;;;;;;;;;753751;184;921162;-54
2022/09/03 02:41:00;;;;;;;11.67;9.67;;;;;;;;;;753986;182;920260;-54
2022/09/03 02:43:26;;;;;;;11.97;8.70;;;;;;;;;;758294;185;816548;-55
2022/09/03 02:45:52;;;;;;;12.70;9.43;;;;;;;;;;747642;182;898805;-53
2022/09/03 02:48:18;;;;;;;11.90;9.33;;;;;;;;;;755519;184;920255;-55
2022/09/03 02:50:43;;;;;;;11.57;8.50;;;;;;;;;;757038;182;917810;-54
2022/09/03 02:53:09;;;;;;;14.48;8.02;;;;;;;;;;762642;182;815641;-54
2022/09/03 02:55:35;;;;;;;13.47;7.97;;;;;;;;;;752113;184;916701;-54
2022/09/03 02:58:01;;;;;;;11.40;8.07;;;;;;;;;;750148;184;919022;-53
2022/09/03 03:00:28;;;;;;;14.23;7.00;;;;;;;;;;759101;184;924394;-53
2022/09/03 03:02:54;;;;;;;14.40;7.90;;;;;;;;;;756853;184;921338;-53
2022/09/03 03:05:21;;;;;;;13.50;7.30;;;;;;;;;;754057;184;914715;-53
2022/09/03 03:07:47;;;;;;;11.17;8.03;;;;;;;;;;760639;183;915357;-53
2022/09/03 03:10:13;;;;;;;13.27;7.10;;;;;;;;;;753294;182;918927;-53
2022/09/03 03:12:38;;;;;;;10.50;6.43;;;;;;;;;;751627;184;919875;-52
2022/09/03 03:15:05;;;;;;;12.47;7.93;;;;;;;;;;756056;184;918534;-52
2022/09/03 03:17:31;;;;;;;16.27;7.63;;;;;;;;;;756843;185;919935;-53
2022/09/03 03:19:56;;;;;;;8.63;5.80;;;;;;;;;;751622;185;919837;-53
2022/09/03 03:22:22;;;;;;;12.03;7.03;;;;;;;;;;754903;184;921236;-53
2022/09/03 03:24:49;;;;;;;18.52;7.80;;;;;;;;;;758442;184;919594;-53
2022/09/03 03:27:14;;;;;;;10.90;7.40;;;;;;;;;;748292;185;918459;-53
2022/09/03 03:29:40;;;;;;;13.97;7.13;;;;;;;;;;749417;183;925423;-53
2022/09/03 03:32:06;;;;;;;13.07;8.20;;;;;;;;;;760875;184;934061;-52
2022/09/03 03:34:31;;;;;;;9.60;7.27;;;;;;;;;;753689;184;920000;-53
2022/09/03 03:36:58;;;;;;;10.20;7.30;;;;;;;;;;754049;182;919542;-53
2022/09/03 03:39:23;;;;;;;11.40;8.17;;;;;;;;;;752887;184;921801;-54
2022/09/03 03:41:51;;;;;;;16.13;8.43;;;;;;;;;;756192;184;857695;-52
2022/09/03 03:44:16;;;;;;;10.03;7.20;;;;;;;;;;748619;185;919519;-52
2022/09/03 03:46:41;;;;;;;11.07;7.50;;;;;;;;;;754350;184;919075;-53
2022/09/03 03:49:07;;;;;;;12.40;7.17;;;;;;;;;;754256;185;920237;-53
2022/09/03 03:51:32;;;;;;;13.47;7.43;;;;;;;;;;756200;184;918915;-52
2022/09/03 03:53:58;;;;;;;10.90;7.73;;;;;;;;;;752716;185;895470;-52
2022/09/03 03:56:25;;;;;;;10.60;7.17;;;;;;;;;;758653;184;920581;-53
2022/09/03 03:58:50;;;;;;;15.07;7.70;;;;;;;;;;754589;184;919991;-53
2022/09/03 04:01:16;;;;;;;11.07;7.13;;;;;;;;;;753907;181;918954;-53
2022/09/03 04:03:42;;;;;;;10.77;8.33;;;;;;;;;;756713;184;918593;-53
2022/09/03 04:06:08;;;;;;;10.10;7.30;;;;;;;;;;761018;182;918250;-52
2022/09/03 04:08:33;;;;;;;10.27;7.37;;;;;;;;;;755083;184;921751;-53
2022/09/03 04:10:59;;;;;;;16.97;8.13;;;;;;;;;;748529;184;920937;-52
2022/09/03 04:13:26;;;;;;;8.60;7.10;;;;;;;;;;759476;182;917225;-53
2022/09/03 04:15:52;;;;;;;10.03;6.70;;;;;;;;;;755404;184;921059;-53
2022/09/03 04:18:18;;;;;;;10.70;7.00;;;;;;;;;;757547;184;822186;-53
2022/09/03 04:20:44;;;;;;;12.20;8.17;;;;;;;;;;753554;185;919188;-53
2022/09/03 04:23:10;;;;;;;10.93;7.83;;;;;;;;;;751740;182;918815;-53
2022/09/03 04:25:36;;;;;;;12.80;8.33;;;;;;;;;;757116;184;919620;-53
2022/09/03 04:28:03;;;;;;;12.20;7.82;;;;;;;;;;758588;184;919751;-54
2022/09/03 04:30:28;;;;;;;11.13;7.70;;;;;;;;;;761946;182;916100;-52
2022/09/03 04:32:54;;;;;;;14.60;8.13;;;;;;;;;;748528;185;915858;-53
2022/09/03 04:35:19;;;;;;;11.80;8.43;;;;;;;;;;756333;184;903650;-53
2022/09/03 04:37:45;;;;;;;13.10;8.83;;;;;;;;;;754624;184;753356;-53
2022/09/03 04:40:11;;;;;;;12.27;7.83;;;;;;;;;;759147;184;919587;-52
2022/09/03 04:42:37;;;;;;;15.97;8.30;;;;;;;;;;747559;185;919405;-53
2022/09/03 04:45:03;;;;;;;17.37;10.97;;;;;;;;;;751461;184;918220;-52
2022/09/03 04:47:29;;;;;;;22.87;8.73;;;;;;;;;;752291;183;920815;-53
2022/09/03 04:49:55;;;;;;;12.67;9.17;;;;;;;;;;755659;185;816955;-53
2022/09/03 04:52:20;;;;;;;15.80;10.00;;;;;;;;;;756886;185;919013;-52
2022/09/03 04:54:46;;;;;;;14.30;9.80;;;;;;;;;;752846;184;917372;-53
2022/09/03 04:57:12;;;;;;;17.42;12.40;;;;;;;;;;760017;184;755848;-53
2022/09/03 04:59:39;;;;;;;18.53;10.60;;;;;;;;;;757418;180;821433;-53
2022/09/03 05:02:04;;;;;;;12.80;10.57;;;;;;;;;;762102;184;930710;-52
2022/09/03 05:04:30;;;;;;;18.50;10.13;;;;;;;;;;754120;182;817411;-52
2022/09/03 05:06:56;;;;;;;15.23;9.73;;;;;;;;;;753221;180;917760;-53
2022/09/03 05:09:21;;;;;;;19.40;9.57;;;;;;;;;;752519;184;919852;-53
2022/09/03 05:11:47;;;;;;;12.67;9.20;;;;;;;;;;753595;182;917425;-53
2022/09/03 05:14:13;;;;;;;10.52;8.65;;;;;;;;;;755762;183;918154;-53
2022/09/03 05:16:39;;;;;;;13.73;9.93;;;;;;;;;;753966;184;912870;-53
2022/09/03 05:19:06;;;;;;;14.10;9.93;;;;;;;;;;753589;184;931158;-53
2022/09/03 05:21:31;;;;;;;13.03;8.67;;;;;;;;;;752012;181;921967;-52
2022/09/03 05:23:56;;;;;;;15.93;9.20;;;;;;;;;;753129;184;921858;-53
2022/09/03 05:26:22;;;;;;;13.67;9.10;;;;;;;;;;765846;181;918768;-53
2022/09/03 05:28:48;;;;;;;15.47;8.73;;;;;;;;;;754020;183;921532;-53
2022/09/03 05:31:15;;;;;;;13.40;8.93;;;;;;;;;;750187;184;921948;-53
2022/09/03 05:33:41;;;;;;;11.80;8.30;;;;;;;;;;758490;184;816718;-52
2022/09/03 05:36:07;;;;;;;13.30;9.40;;;;;;;;;;753225;184;921198;-53
2022/09/03 05:38:32;;;;;;;17.23;10.47;;;;;;;;;;753004;184;931704;-53
2022/09/03 05:41:00;;;;;;;10.50;8.13;;;;;;;;;;762748;184;823054;-53
2022/09/03 05:43:26;;;;;;;16.10;7.63;;;;;;;;;;751512;182;919231;-53
2022/09/03 05:45:53;;;;;;;14.37;8.00;;;;;;;;;;756993;184;917290;-53
2022/09/03 05:48:18;;;;;;;16.53;8.47;;;;;;;;;;753256;184;920239;-53
2022/09/03 05:50:43;;;;;;;12.40;7.20;;;;;;;;;;760019;184;819469;-53
2022/09/03 05:53:09;;;;;;;11.30;7.37;;;;;;;;;;748369;187;885881;-53
2022/09/03 05:55:35;;;;;;;11.57;7.70;;;;;;;;;;752038;184;915406;-53
2022/09/03 05:58:01;;;;;;;17.00;7.10;;;;;;;;;;755832;185;901798;-53
2022/09/03 06:00:27;;;;;;;13.63;8.20;;;;;;;;;;755072;184;817568;-53
2022/09/03 06:02:53;;;;;;;11.00;7.63;;;;;;;;;;754073;184;816757;-53
2022/09/03 06:05:18;;;;;;;11.33;7.67;;;;;;;;;;753621;185;816745;-53
2022/09/03 06:07:47;;;;;;;15.07;6.70;;;;;;;;;;750605;185;835710;-53
2022/09/03 06:10:11;;;;;;;15.50;8.37;;;;;;;;;;749583;183;921190;-53
2022/09/03 06:12:37;;;;;;;9.60;6.37;;;;;;;;;;752066;185;908313;-54
2022/09/03 06:15:04;;;;;;;13.05;7.82;;;;;;;;;;756571;185;872658;-53
2022/09/03 06:17:28;;;;;;;11.60;7.77;;;;;;;;;;751916;182;920544;-52
2022/09/03 06:19:54;;;;;;;12.40;6.93;;;;;;;;;;757356;182;918509;-53
2022/09/03 06:22:23;;;;;;;15.60;7.37;;;;;;;;;;755693;185;919709;-54
2022/09/03 06:24:46;;;;;;;14.10;7.20;;;;;;;;;;739368;186;919464;-52
2022/09/03 06:27:12;;;;;;;11.80;6.80;;;;;;;;;;749622;182;920131;-53
2022/09/03 06:29:38;;;;;;;15.45;7.40;;;;;;;;;;754262;184;820598;-54
2022/09/03 06:32:03;;;;;;;12.93;7.40;;;;;;;;;;760448;184;821299;-54
2022/09/03 06:34:29;;;;;;;10.00;7.17;;;;;;;;;;754646;184;824805;-54
2022/09/03 06:36:56;;;;;;;9.45;5.50;;;;;;;;;;754641;184;919372;-53
2022/09/03 06:39:21;;;;;;;16.57;7.50;;;;;;;;;;752353;183;919597;-53
2022/09/03 06:41:50;;;;;;;10.13;6.70;;;;;;;;;;741942;184;921205;-53
2022/09/03 06:44:14;;;;;;;13.80;8.27;;;;;;;;;;748723;185;919752;-53
2022/09/03 06:46:41;;;;;;;12.50;7.50;;;;;;;;;;758547;184;919363;-54
2022/09/03 06:49:04;;;;;;;12.43;7.30;;;;;;;;;;751037;184;918468;-54
2022/09/03 06:51:30;;;;;;;12.27;7.00;;;;;;;;;;754604;185;917912;-54
2022/09/03 06:54:00;;;;;;;11.73;6.97;;;;;;;;;;753961;185;839183;-53
2022/09/03 06:56:26;;;;;;;13.47;6.70;;;;;;;;;;758119;184;919811;-53
2022/09/03 06:58:52;;;;;;;10.93;6.63;;;;;;;;;;747461;184;919777;-53
2022/09/03 07:01:18;;;;;;;13.70;7.22;;;;;;;;;;754544;184;919484;-54
2022/09/03 07:03:43;;;;;;;13.80;7.30;;;;;;;;;;751261;187;920303;-54
2022/09/03 07:06:11;;;;;;;10.97;6.60;;;;;;;;;;745373;185;919330;-54
2022/09/03 07:08:37;;;;;;;13.00;6.73;;;;;;;;;;751622;185;919606;-53
2022/09/03 07:11:07;;;;;;;12.87;6.60;;;;;;;;;;754158;185;903973;-53
2022/09/03 07:13:29;;;;;;;14.80;7.73;;;;;;;;;;749871;184;919889;-54
2022/09/03 07:15:57;;;;;;;11.77;7.40;;;;;;;;;;754011;184;928871;-54
2022/09/03 07:18:23;;;;;;;16.03;8.00;;;;;;;;;;750985;185;919080;-54
2022/09/03 07:20:49;;;;;;;11.00;7.17;;;;;;;;;;754460;184;919346;-54
2022/09/03 07:23:15;;;;;;;13.97;7.93;;;;;;;;;;750547;185;871641;-54
2022/09/03 07:25:41;;;;;;;18.33;7.68;;;;;;;;;;755547;184;918695;-54
2022/09/03 07:28:07;;;;;;;18.17;7.80;;;;;;;;;;755242;185;816361;-55
2022/09/03 07:30:32;;;;;;;14.57;7.27;;;;;;;;;;747937;185;916157;-54
2022/09/03 07:33:02;;;;;;;13.23;7.37;;;;;;;;;;751195;183;819932;-53
2022/09/03 07:35:24;;;;;;;15.03;7.63;;;;;;;;;;756343;181;921862;-54
2022/09/03 07:37:50;;;;;;;14.80;8.47;;;;;;;;;;757303;183;919509;-54
2022/09/03 07:40:18;;;;;;;12.00;7.10;;;;;;;;;;753573;183;860088;-54
2022/09/03 07:42:42;;;;;;;10.83;6.23;;;;;;;;;;755790;183;817991;-53
2022/09/03 07:45:09;;;;;;;12.90;7.10;;;;;;;;;;753023;184;919481;-54
2022/09/03 07:47:34;;;;;;;12.40;6.50;;;;;;;;;;755284;184;918227;-53
2022/09/03 07:50:00;;;;;;;14.90;7.43;;;;;;;;;;748233;184;922498;-55
2022/09/03 07:52:26;;;;;;;20.70;6.67;;;;;;;;;;755257;184;918613;-53
2022/09/03 07:54:52;;;;;;;12.33;6.73;;;;;;;;;;748723;184;920934;-54
2022/09/03 07:57:18;;;;;;;11.50;7.67;;;;;;;;;;752416;184;920027;-53
2022/09/03 07:59:44;;;;;;;10.80;6.87;;;;;;;;;;756366;184;921810;-55
2022/09/03 08:02:10;;;;;;;18.17;7.50;;;;;;;;;;754395;184;921566;-54
2022/09/03 08:04:35;;;;;;;14.47;7.67;;;;;;;;;;753964;184;910127;-54
2022/09/03 08:07:02;;;;;;;14.13;6.53;;;;;;;;;;759470;184;920967;-54
2022/09/03 08:09:27;;;;;;;28.10;7.93;;;;;;;;;;750893;185;919173;-54
2022/09/03 08:11:53;;;;;;;8.30;6.30;;;;;;;;;;752259;185;917954;-54
2022/09/03 08:14:19;;;;;;;11.87;6.53;;;;;;;;;;755653;184;898206;-55
2022/09/03 08:16:46;;;;;;;13.00;7.67;;;;;;;;;;765125;181;817841;-54
2022/09/03 08:19:12;;;;;;;12.30;6.40;;;;;;;;;;754359;184;919767;-54
2022/09/03 08:21:40;;;;;;;15.87;7.70;;;;;;;;;;748641;185;921552;-55
2022/09/03 08:24:05;;;;;;;15.20;7.77;;;;;;;;;;756132;184;920150;-53
2022/09/03 08:26:30;;;;;;;12.00;7.53;;;;;;;;;;755255;184;915296;-55
2022/09/03 08:28:56;;;;;;;12.10;7.67;;;;;;;;;;754327;182;817044;-53
2022/09/03 08:31:22;;;;;;;11.90;7.30;;;;;;;;;;759826;183;818154;-54
2022/09/03 08:33:48;;;;;;;12.13;6.97;;;;;;;;;;752027;185;911155;-54
2022/09/03 08:36:14;;;;;;;13.97;8.80;;;;;;;;;;754683;184;920211;-54
2022/09/03 08:38:42;;;;;;;15.10;6.70;;;;;;;;;;753497;182;919097;-55
2022/09/03 08:41:07;;;;;;;13.07;7.70;;;;;;;;;;753955;185;910351;-54
2022/09/03 08:43:32;;;;;;;12.53;8.23;;;;;;;;;;746746;185;921609;-53
2022/09/03 08:45:58;;;;;;;10.95;6.65;;;;;;;;;;755366;181;919180;-54
2022/09/03 08:48:24;;;;;;;10.65;6.45;;;;;;;;;;759856;184;920400;-54
2022/09/03 08:50:50;;;;;;;11.50;7.13;;;;;;;;;;755245;184;919484;-55
2022/09/03 08:53:15;;;;;;;11.70;5.70;;;;;;;;;;757979;184;927753;-54
2022/09/03 08:55:43;;;;;;;10.90;6.37;;;;;;;;;;754359;184;919885;-54
2022/09/03 08:58:24;;;;;;;10.87;6.60;;;;;;;;;;746393;184;917530;-54
2022/09/03 09:00:50;;;;;;;12.73;6.83;;;;;;;;;;753354;184;920981;-55
2022/09/03 09:03:34;;;;;;;13.70;6.50;;;;;;;;;;752291;184;924346;-55
2022/09/03 09:06:00;;;;;;;11.00;6.63;;;;;;;;;;751427;184;919236;-55
2022/09/03 09:08:26;;;;;;;11.60;6.70;;;;;;;;;;752981;184;919730;-55
2022/09/03 09:10:54;;;;;;;14.60;7.10;;;;;;;;;;753961;185;907583;-55
2022/09/03 09:13:22;;;;;;;9.37;5.70;;;;;;;;;;757342;184;924805;-55
2022/09/03 09:16:03;;;;;;;10.70;6.77;;;;;;;;;;748918;182;919324;-56
2022/09/03 09:18:34;;;;;;;12.10;7.57;;;;;;;;;;741924;185;817320;-54
2022/09/03 09:21:06;;;;;;;9.93;6.33;;;;;;;;;;753213;185;815886;-55
2022/09/03 09:23:33;;;;;;;16.57;6.43;;;;;;;;;;758778;184;919159;-54
2022/09/03 09:25:58;;;;;;;10.63;5.70;;;;;;;;;;754458;184;913204;-54
2022/09/03 09:28:24;;;;;;;8.13;5.30;;;;;;;;;;747002;185;919625;-54
2022/09/03 09:30:50;;;;;;;11.50;7.37;;;;;;;;;;760585;184;817027;-54
2022/09/03 09:33:16;;;;;;;10.67;5.60;;;;;;;;;;753633;184;920477;-55
2022/09/03 09:35:42;;;;;;;10.13;6.00;;;;;;;;;;752004;184;899284;-54
2022/09/03 09:38:08;;;;;;;9.30;5.70;;;;;;;;;;755689;184;870608;-55
2022/09/03 09:40:33;;;;;;;7.70;5.73;;;;;;;;;;757875;184;920148;-54
2022/09/03 09:43:20;;;;;;;12.37;6.23;;;;;;;;;;756543;184;915720;-54
2022/09/03 09:45:44;;;;;;;10.93;6.00;;;;;;;;;;756164;184;917831;-54
2022/09/03 09:48:15;;;;;;;14.80;5.50;;;;;;;;;;753418;184;862506;-55
2022/09/03 09:50:40;;;;;;;9.07;5.67;;;;;;;;;;762921;184;812828;-55
2022/09/03 09:53:13;;;;;;;12.13;6.37;;;;;;;;;;752838;182;919185;-55
2022/09/03 09:55:33;;;;;;;9.27;5.30;;;;;;;;;;751828;184;920089;-55
2022/09/03 09:58:08;;;;;;;12.80;5.47;;;;;;;;;;752668;184;919489;-55
2022/09/03 10:00:33;;;;;;;7.23;4.87;;;;;;;;;;753792;183;820919;-56
2022/09/03 10:02:58;;;;;;;9.70;5.00;;;;;;;;;;753383;184;630712;-55
2022/09/03 10:05:24;;;;;;;10.07;5.43;;;;;;;;;;753619;184;631751;-56
2022/09/03 10:07:54;;;;;;;8.90;5.17;;;;;;;;;;758019;184;617226;-56
2022/09/03 10:10:20;;;;;;;7.37;4.33;;;;;;;;;;762241;184;617991;-59
2022/09/03 10:12:46;;;;;;;5.90;3.73;;;;;;;;;;761241;184;629721;-55
2022/09/03 10:15:23;;;;;;;11.68;5.12;;;;;;;;;;757220;184;919149;-55
2022/09/03 10:17:54;;;;;;;7.50;4.77;;;;;;;;;;755159;184;918199;-55
2022/09/03 10:20:27;;;;;;;6.20;5.13;;;;;;;;;;759417;184;917841;-55
2022/09/03 10:22:53;;;;;;;8.63;4.80;;;;;;;;;;753011;184;920204;-55
2022/09/03 10:25:19;;;;;;;7.13;4.00;;;;;;;;;;752163;184;914862;-54
2022/09/03 10:27:46;;;;;;;12.37;5.40;;;;;;;;;;754023;184;921372;-56
2022/09/03 10:30:14;;;;;;;7.87;4.63;;;;;;;;;;755759;182;920899;-55
2022/09/03 10:32:43;;;;;;;7.40;5.83;;;;;;;;;;754498;184;921322;-55
2022/09/03 10:35:11;;;;;;;11.50;4.90;;;;;;;;;;751838;182;925580;-56
2022/09/03 10:37:38;;;;;;;9.23;4.80;;;;;;;;;;756909;184;920534;-56
2022/09/03 10:40:06;;;;;;;7.70;4.47;;;;;;;;;;761214;184;919141;-55
2022/09/03 10:42:45;;;;;;;9.60;5.27;;;;;;;;;;753822;184;879450;-56
2022/09/03 10:45:16;;;;;;;7.97;5.47;;;;;;;;;;750929;182;918879;-55
2022/09/03 10:47:43;;;;;;;9.20;4.63;;;;;;;;;;754018;184;917240;-55
2022/09/03 10:50:11;;;;;;;9.60;4.57;;;;;;;;;;752313;184;921797;-56
2022/09/03 10:52:36;;;;;;;11.53;4.10;;;;;;;;;;756181;181;787086;-55
2022/09/03 10:55:16;;;;;;;6.53;4.25;;;;;;;;;;752687;185;919536;-55
2022/09/03 10:57:45;;;;;;;7.37;5.20;;;;;;;;;;752373;184;919950;-55
2022/09/03 11:00:11;;;;;;;6.70;3.97;;;;;;;;;;751624;185;919001;-57
2022/09/03 11:02:52;;;;;;;9.40;4.32;;;;;;;;;;758512;182;924923;-56
2022/09/03 11:05:18;;;;;;;7.53;4.33;;;;;;;;;;757590;185;918504;-56
2022/09/03 11:07:45;;;;;;;17.80;4.30;;;;;;;;;;754008;181;920157;-56
2022/09/03 11:10:10;;;;;;;6.27;3.90;;;;;;;;;;754397;182;878073;-56
2022/09/03 11:12:37;;;;;;;7.17;4.00;;;;;;;;;;755120;184;923377;-56
2022/09/03 11:15:04;;;;;;;6.53;4.63;;;;;;;;;;756344;184;918899;-56
2022/09/03 11:17:31;;;;;;;14.63;5.30;;;;;;;;;;752303;184;919505;-55
2022/09/03 11:19:57;;;;;;;6.80;3.50;;;;;;;;;;760132;182;919679;-57
2022/09/03 11:22:22;;;;;;;10.10;4.03;;;;;;;;;;759643;184;816325;-59
2022/09/03 11:24:51;;;;;;;6.33;4.43;;;;;;;;;;755338;184;867063;-55
2022/09/03 11:27:20;;;;;;;10.93;4.27;;;;;;;;;;754272;180;920060;-56
2022/09/03 11:29:51;;;;;;;8.03;3.53;;;;;;;;;;755594;182;919246;-56
2022/09/03 11:32:17;;;;;;;6.53;3.70;;;;;;;;;;754159;182;912992;-56
2022/09/03 11:34:45;;;;;;;7.50;3.70;;;;;;;;;;755757;184;919160;-55
2022/09/03 11:37:13;;;;;;;5.10;3.20;;;;;;;;;;755270;183;921220;-56
2022/09/03 11:39:38;;;;;;;8.40;3.30;;;;;;;;;;755849;183;918766;-56
2022/09/03 11:42:06;;;;;;;6.80;3.57;;;;;;;;;;754783;184;918031;-56
2022/09/03 11:44:35;;;;;;;5.17;2.90;;;;;;;;;;748987;185;922202;-56
2022/09/03 11:47:00;;;;;;;8.37;3.13;;;;;;;;;;758646;184;918226;-55
2022/09/03 11:49:27;;;;;;;6.43;2.70;;;;;;;;;;752843;184;918059;-55
2022/09/03 11:52:04;;;;;;;5.83;3.57;;;;;;;;;;752579;183;919429;-55
2022/09/03 11:54:32;;;;;;;7.47;3.50;;;;;;;;;;754655;184;919478;-56
2022/09/03 11:57:18;;;;;;;5.82;3.42;;;;;;;;;;752339;182;918675;-57
2022/09/03 11:59:43;;;;;;;10.50;4.23;;;;;;;;;;754295;182;920332;-56
2022/09/03 12:02:25;;;;;;;3.50;2.70;;;;;;;;;;755262;185;919860;-56
2022/09/03 12:04:51;;;;;;;11.53;2.97;;;;;;;;;;760241;184;937243;-55
2022/09/03 12:07:33;;;;;;;6.20;4.00;;;;;;;;;;756527;184;916843;-55
2022/09/03 12:10:17;;;;;;;5.17;3.50;;;;;;;;;;756019;182;916057;-56
2022/09/03 12:12:58;;;;;;;4.43;3.07;;;;;;;;;;755558;183;919897;-55
2022/09/03 12:15:26;;;;;;;5.77;2.83;;;;;;;;;;758903;183;817822;-56
2022/09/03 12:18:17;;;;;;;5.93;3.50;;;;;;;;;;749723;185;820718;-56
2022/09/03 12:20:23;;;;;;;4.70;3.20;;;;;;;;;;751394;185;919663;-56
2022/09/03 12:22:44;;;;;;;5.13;2.60;;;;;;;;;;758338;183;919535;-55
2022/09/03 12:25:10;;;;;;;3.70;2.53;;;;;;;;;;749515;184;919480;-56
2022/09/03 12:27:35;;;;;;;5.40;2.77;;;;;;;;;;756083;181;918193;-57
2022/09/03 12:30:01;;;;;;;5.43;2.73;;;;;;;;;;755409;184;922832;-55
2022/09/03 12:32:29;;;;;;;6.60;3.33;;;;;;;;;;753424;184;919056;-56
2022/09/03 12:34:54;;;;;;;3.87;2.57;;;;;;;;;;753983;184;918729;-55
2022/09/03 12:37:22;;;;;;;9.63;3.00;;;;;;;;;;755333;184;821838;-56
2022/09/03 12:39:49;;;;;;;4.30;3.30;;;;;;;;;;756172;182;818797;-56
2022/09/03 12:42:15;;;;;;;4.80;3.70;;;;;;;;;;753433;184;919000;-55
2022/09/03 12:44:41;;;;;;;6.80;2.77;;;;;;;;;;753965;184;818726;-56
2022/09/03 12:47:11;;;;;;;5.20;2.50;;;;;;;;;;750661;184;818149;-55
2022/09/03 12:49:37;;;;;;;5.17;3.20;;;;;;;;;;753238;184;919506;-56
2022/09/03 12:52:11;;;;;;;6.73;2.73;;;;;;;;;;750295;184;916308;-55
2022/09/03 12:54:37;;;;;;;4.37;2.83;;;;;;;;;;757539;184;917697;-56
2022/09/03 12:57:03;;;;;;;7.17;3.90;;;;;;;;;;752257;184;923328;-57
2022/09/03 12:59:29;;;;;;;9.13;3.30;;;;;;;;;;754972;184;941103;-56
2022/09/03 13:01:55;;;;;;;5.70;2.80;;;;;;;;;;755286;182;917715;-56
2022/09/03 13:04:21;;;;;;;6.57;3.50;;;;;;;;;;753072;183;916576;-57
2022/09/03 13:06:51;;;;;;;8.73;2.77;;;;;;;;;;754574;184;929906;-55
2022/09/03 13:09:17;;;;;;;4.57;2.60;;;;;;;;;;749606;182;902175;-57
2022/09/03 13:11:44;;;;;;;4.03;2.33;;;;;;;;;;758929;184;901449;-56
2022/09/03 13:14:09;;;;;;;4.18;2.25;;;;;;;;;;748935;182;934847;-56
2022/09/03 13:16:35;;;;;;;9.93;3.20;;;;;;;;;;756335;184;865309;-56
2022/09/03 13:19:18;;;;;;;4.73;2.83;;;;;;;;;;751649;184;920126;-56
2022/09/03 13:22:00;;;;;;;3.73;2.70;;;;;;;;;;747366;184;921261;-58
2022/09/03 13:24:32;;;;;;;11.43;2.80;;;;;;;;;;747452;185;920241;-56
2022/09/03 13:27:16;;;;;;;7.27;2.97;;;;;;;;;;757582;184;919607;-56
2022/09/03 13:29:39;;;;;;;3.30;2.40;;;;;;;;;;759851;182;714706;-56
2022/09/03 13:32:06;;;;;;;5.33;2.70;;;;;;;;;;756686;184;817161;-56
2022/09/03 13:34:31;;;;;;;3.67;2.57;;;;;;;;;;755667;182;917061;-56
2022/09/03 13:37:13;;;;;;;6.57;2.67;;;;;;;;;;756836;184;814641;-55
2022/09/03 13:39:51;;;;;;;5.93;3.03;;;;;;;;;;749114;188;816036;-56
2022/09/03 13:42:17;;;;;;;6.93;2.37;;;;;;;;;;755142;183;919216;-55
2022/09/03 13:44:44;;;;;;;3.40;2.20;;;;;;;;;;755343;182;818959;-55
2022/09/03 13:47:13;;;;;;;3.97;2.30;;;;;;;;;;753593;180;853910;-56
2022/09/03 13:52:11;;;;;;;3.30;1.97;;;;;;;;;;763142;181;818386;-55
2022/09/03 13:54:36;;;;;;;4.00;2.33;;;;;;;;;;751619;185;919484;-55
2022/09/03 13:57:03;;;;;;;3.67;2.50;;;;;;;;;;750481;185;920298;-57
2022/09/03 13:59:45;;;;;;;4.70;2.77;;;;;;;;;;760734;184;919245;-56
2022/09/03 14:02:26;;;;;;;8.07;2.83;;;;;;;;;;760888;183;919039;-55
2022/09/03 14:04:54;;;;;;;4.07;3.20;;;;;;;;;;756310;185;921879;-56
2022/09/03 14:07:22;;;;;;;5.10;3.00;;;;;;;;;;748741;185;919062;-55
2022/09/03 14:09:51;;;;;;;4.23;2.83;;;;;;;;;;753430;184;916730;-56
2022/09/03 14:12:17;;;;;;;5.23;2.73;;;;;;;;;;748333;185;919117;-56
2022/09/03 14:14:44;;;;;;;3.00;2.30;;;;;;;;;;760145;184;813031;-57
2022/09/03 14:17:11;;;;;;;4.40;2.27;;;;;;;;;;750320;185;948678;-57
2022/09/03 14:19:51;;;;;;;3.80;2.37;;;;;;;;;;753897;184;917773;-56
2022/09/03 14:22:16;;;;;;;5.25;3.00;;;;;;;;;;746725;185;924112;-56
2022/09/03 14:24:43;;;;;;;7.30;2.53;;;;;;;;;;756127;184;923301;-53
2022/09/03 14:27:09;;;;;;;3.80;2.50;;;;;;;;;;751350;184;918751;-54
2022/09/03 14:29:35;;;;;;;3.77;2.73;;;;;;;;;;752408;184;911030;-55